Time;durP1;ratioP1;P1;durP2;ratioP2;P2;SDS_P1;SDS_P2;PMS_P1;PMS_P2;Temp;Humidity;BMP_temperature;BMP_pressure;BME280_temperature;BME280_humidity;BME280_pressure;Samples;Min_cycle;Max_cycle;Signal;HPM_P1;HPM_P2
2022/10/03 00:01:11;;;;;;;20.83;7.30;;;;;;;;;;6160910;28;20152;-63
2022/10/03 00:04:43;;;;;;;21.70;7.65;;;;;;;;;;6159165;28;20418;-63
2022/10/03 00:08:12;;;;;;;18.88;7.43;;;;;;;;;;6159856;28;20050;-64
2022/10/03 00:11:27;;;;;;;27.67;8.98;;;;;;;;;;6155897;28;20050;-63
2022/10/03 00:14:46;;;;;;;23.33;8.15;;;;;;;;;;6156759;28;20047;-63
2022/10/03 00:18:12;;;;;;;24.92;9.02;;;;;;;;;;6160368;28;20163;-63
2022/10/03 00:21:24;;;;;;;21.83;8.48;;;;;;;;;;6157509;28;20150;-63
2022/10/03 00:24:31;;;;;;;20.90;8.07;;;;;;;;;;6156449;28;20106;-64
2022/10/03 00:27:48;;;;;;;29.00;10.63;;;;;;;;;;6158548;28;20077;-64
2022/10/03 00:31:00;;;;;;;23.95;8.90;;;;;;;;;;6157204;28;20495;-63
2022/10/03 00:34:31;;;;;;;26.95;9.93;;;;;;;;;;6158570;28;20578;-63
2022/10/03 00:38:16;;;;;;;23.95;8.70;;;;;;;;;;6157585;28;20050;-64
2022/10/03 00:41:42;;;;;;;30.80;11.25;;;;;;;;;;6134906;28;20782;-63
2022/10/03 00:44:46;;;;;;;28.80;9.18;;;;;;;;;;6158707;28;20539;-63
2022/10/03 00:48:12;;;;;;;25.42;9.07;;;;;;;;;;6160658;28;20551;-64
2022/10/03 00:51:31;;;;;;;27.50;9.70;;;;;;;;;;6161017;28;20402;-64
2022/10/03 00:55:00;;;;;;;27.85;9.52;;;;;;;;;;6157818;28;20138;-65
2022/10/03 00:58:22;;;;;;;30.45;9.50;;;;;;;;;;6158129;28;20053;-66
2022/10/03 01:01:26;;;;;;;29.23;9.90;;;;;;;;;;6159605;28;20387;-65
2022/10/03 01:04:48;;;;;;;28.77;10.77;;;;;;;;;;6157716;28;20058;-63
2022/10/03 01:08:18;;;;;;;30.73;12.60;;;;;;;;;;6158543;28;20047;-64
2022/10/03 01:11:33;;;;;;;27.75;10.15;;;;;;;;;;6161210;28;20055;-65
2022/10/03 01:14:50;;;;;;;31.60;11.60;;;;;;;;;;6167988;28;20050;-64
2022/10/03 01:18:09;;;;;;;30.02;12.23;;;;;;;;;;6163399;28;20054;-65
2022/10/03 01:21:29;;;;;;;28.77;11.43;;;;;;;;;;6164456;28;20039;-63
2022/10/03 01:24:32;;;;;;;29.67;11.15;;;;;;;;;;6162020;28;20054;-64
2022/10/03 01:31:09;;;;;;;30.90;11.87;;;;;;;;;;6160673;28;20110;-63
2022/10/03 01:34:23;;;;;;;27.85;11.52;;;;;;;;;;6166554;28;20449;-64
2022/10/03 01:37:46;;;;;;;29.45;11.30;;;;;;;;;;6169892;28;20405;-64
2022/10/03 01:41:01;;;;;;;28.35;11.85;;;;;;;;;;6170887;28;20114;-63
2022/10/03 01:44:13;;;;;;;34.45;11.93;;;;;;;;;;6172896;28;20928;-64
2022/10/03 01:47:50;;;;;;;28.67;12.13;;;;;;;;;;6162423;28;20509;-63
2022/10/03 01:51:02;;;;;;;31.40;11.57;;;;;;;;;;6159994;28;20133;-63
2022/10/03 01:54:15;;;;;;;;;;;;;;;;;;6161403;28;20042;-63
2022/10/03 01:57:34;;;;;;;44.75;15.68;;;;;;;;;;6161500;28;20369;-63
2022/10/03 02:00:52;;;;;;;32.83;13.75;;;;;;;;;;6161106;28;20498;-63
2022/10/03 02:04:05;;;;;;;28.20;11.60;;;;;;;;;;6161599;28;20845;-63
2022/10/03 02:07:06;;;;;;;36.97;11.73;;;;;;;;;;6163140;28;20043;-63
2022/10/03 02:10:30;;;;;;;35.40;12.00;;;;;;;;;;6162176;28;20418;-64
2022/10/03 02:13:31;;;;;;;34.80;11.13;;;;;;;;;;6163454;28;20185;-64
2022/10/03 02:16:52;;;;;;;28.95;10.38;;;;;;;;;;6161371;28;20518;-65
2022/10/03 02:20:00;;;;;;;30.90;10.95;;;;;;;;;;6158438;28;20619;-63
2022/10/03 02:23:13;;;;;;;25.08;10.15;;;;;;;;;;6161980;28;20047;-63
2022/10/03 02:26:43;;;;;;;31.33;12.73;;;;;;;;;;6162086;28;20039;-64
2022/10/03 02:30:11;;;;;;;27.77;10.45;;;;;;;;;;6160058;28;20046;-63
2022/10/03 02:33:44;;;;;;;26.35;10.43;;;;;;;;;;6159867;28;20063;-63
2022/10/03 02:37:07;;;;;;;32.85;11.32;;;;;;;;;;6160612;28;20074;-63
2022/10/03 02:40:10;;;;;;;;;;;;;;;;;;6161134;28;20177;-63
2022/10/03 02:43:41;;;;;;;28.70;9.45;;;;;;;;;;6162445;28;19953;-63
2022/10/03 02:47:07;;;;;;;26.58;9.23;;;;;;;;;;6159922;28;20065;-63
2022/10/03 02:50:23;;;;;;;29.10;10.52;;;;;;;;;;6159521;28;20047;-63
2022/10/03 02:53:47;;;;;;;28.67;11.23;;;;;;;;;;6161907;28;20129;-63
2022/10/03 02:57:14;;;;;;;30.08;10.98;;;;;;;;;;6161490;28;20113;-63
2022/10/03 03:00:19;;;;;;;29.58;11.05;;;;;;;;;;6160146;28;20125;-63
2022/10/03 03:03:35;;;;;;;42.72;11.82;;;;;;;;;;6158729;28;20074;-64
2022/10/03 03:06:56;;;;;;;34.95;11.02;;;;;;;;;;6159858;28;20449;-62
2022/10/03 03:10:05;;;;;;;29.63;10.35;;;;;;;;;;6163022;28;20061;-62
2022/10/03 03:13:25;;;;;;;27.52;10.27;;;;;;;;;;6157745;28;20146;-65
2022/10/03 03:16:43;;;;;;;31.52;10.65;;;;;;;;;;6156786;28;21171;-65
2022/10/03 03:20:05;;;;;;;28.77;10.80;;;;;;;;;;6159499;28;20146;-62
2022/10/03 03:23:08;;;;;;;33.80;12.35;;;;;;;;;;6159237;28;20449;-65
2022/10/03 03:26:21;;;;;;;36.58;11.23;;;;;;;;;;6164395;28;20073;-64
2022/10/03 03:29:35;;;;;;;35.97;12.45;;;;;;;;;;6159436;28;20047;-63
2022/10/03 03:32:55;;;;;;;32.65;10.93;;;;;;;;;;6161200;28;20554;-64
2022/10/03 03:36:07;;;;;;;26.42;11.38;;;;;;;;;;6160672;28;20062;-64
2022/10/03 03:39:28;;;;;;;47.35;13.02;;;;;;;;;;6162440;28;20094;-66
2022/10/03 03:42:52;;;;;;;26.55;11.05;;;;;;;;;;6160564;28;20105;-64
2022/10/03 03:46:18;;;;;;;30.33;9.68;;;;;;;;;;6167113;28;20087;-64
2022/10/03 03:49:33;;;;;;;33.88;10.40;;;;;;;;;;6168596;28;20046;-64
2022/10/03 03:52:56;;;;;;;29.70;9.52;;;;;;;;;;6168078;28;20577;-64
2022/10/03 03:56:05;;;;;;;24.58;8.18;;;;;;;;;;6158687;28;20046;-63
2022/10/03 03:59:10;;;;;;;22.65;8.10;;;;;;;;;;6157383;28;20155;-64
2022/10/03 04:02:29;;;;;;;24.60;8.38;;;;;;;;;;6158626;28;20047;-63
2022/10/03 04:05:45;;;;;;;22.05;8.82;;;;;;;;;;6160300;28;20138;-66
2022/10/03 04:08:59;;;;;;;25.65;8.73;;;;;;;;;;6158183;28;20034;-65
2022/10/03 04:12:24;;;;;;;22.52;8.07;;;;;;;;;;6158382;28;20042;-66
2022/10/03 04:15:49;;;;;;;25.52;8.20;;;;;;;;;;6160169;28;20051;-63
2022/10/03 04:19:31;;;;;;;28.00;8.23;;;;;;;;;;6161135;28;20047;-65
2022/10/03 04:23:11;;;;;;;27.90;7.93;;;;;;;;;;6157546;28;20093;-65
2022/10/03 04:26:41;;;;;;;25.20;8.60;;;;;;;;;;6158540;28;20070;-64
2022/10/03 04:29:49;;;;;;;20.92;8.60;;;;;;;;;;6157613;28;20046;-65
2022/10/03 04:33:10;;;;;;;20.95;8.10;;;;;;;;;;6162455;28;20059;-65
2022/10/03 04:36:42;;;;;;;25.00;8.83;;;;;;;;;;6164292;28;20073;-64
2022/10/03 04:40:03;;;;;;;39.28;10.90;;;;;;;;;;6158970;28;20133;-65
2022/10/03 04:43:13;;;;;;;21.88;8.55;;;;;;;;;;6158449;28;20871;-64
2022/10/03 04:46:16;;;;;;;24.63;8.57;;;;;;;;;;6163770;28;20161;-65
2022/10/03 04:49:39;;;;;;;23.80;9.27;;;;;;;;;;6165091;28;20097;-64
2022/10/03 04:53:06;;;;;;;;;;;;;;;;;;6164418;28;20075;-62
2022/10/03 04:56:34;;;;;;;22.17;7.40;;;;;;;;;;6160357;28;20297;-63
2022/10/03 04:59:52;;;;;;;21.52;6.85;;;;;;;;;;6165526;28;20137;-64
2022/10/03 05:03:14;;;;;;;27.08;7.10;;;;;;;;;;6166916;28;20513;-63
2022/10/03 05:06:34;;;;;;;23.98;6.70;;;;;;;;;;6163540;28;20046;-66
2022/10/03 05:09:37;;;;;;;23.50;6.38;;;;;;;;;;6163368;28;20053;-65
2022/10/03 05:12:49;;;;;;;22.77;6.18;;;;;;;;;;6168989;28;20142;-63
2022/10/03 05:16:10;;;;;;;21.63;6.47;;;;;;;;;;6182096;28;20058;-65
2022/10/03 05:19:36;;;;;;;21.60;6.15;;;;;;;;;;6171158;28;20062;-65
2022/10/03 05:22:45;;;;;;;18.55;6.50;;;;;;;;;;6170593;28;20097;-59
2022/10/03 05:25:57;;;;;;;23.20;7.63;;;;;;;;;;6170205;28;20093;-61
2022/10/03 05:29:22;;;;;;;26.08;7.38;;;;;;;;;;6172503;28;20061;-63
2022/10/03 05:32:36;;;;;;;22.58;6.78;;;;;;;;;;6173905;28;20046;-64
2022/10/03 05:35:53;;;;;;;18.30;6.60;;;;;;;;;;6169447;28;20057;-65
2022/10/03 05:39:24;;;;;;;22.98;7.57;;;;;;;;;;6168171;28;20089;-60
2022/10/03 05:42:51;;;;;;;21.98;7.55;;;;;;;;;;6170717;28;20514;-66
2022/10/03 05:46:02;;;;;;;28.45;8.45;;;;;;;;;;6169830;28;20142;-65
2022/10/03 05:49:27;;;;;;;34.22;8.57;;;;;;;;;;6169202;28;20055;-63
2022/10/03 05:53:10;;;;;;;21.73;7.07;;;;;;;;;;6181126;28;20137;-69
2022/10/03 05:56:38;;;;;;;21.60;7.30;;;;;;;;;;6160216;28;20066;-71
2022/10/03 05:59:58;;;;;;;26.15;7.35;;;;;;;;;;6152434;28;20097;-65
2022/10/03 06:03:15;;;;;;;35.35;7.82;;;;;;;;;;6169717;28;20105;-66
2022/10/03 06:06:25;;;;;;;18.77;7.15;;;;;;;;;;6169405;28;20050;-66
2022/10/03 06:09:48;;;;;;;24.17;7.40;;;;;;;;;;6167215;28;20424;-65
2022/10/03 06:13:11;;;;;;;18.17;6.28;;;;;;;;;;6167198;28;20185;-65
2022/10/03 06:16:36;;;;;;;19.42;6.90;;;;;;;;;;6167684;28;20067;-64
2022/10/03 06:19:58;;;;;;;29.10;7.28;;;;;;;;;;6168611;28;20129;-65
2022/10/03 06:23:26;;;;;;;21.52;6.97;;;;;;;;;;6168423;28;20051;-65
2022/10/03 06:26:58;;;;;;;23.52;8.45;;;;;;;;;;6168966;28;20138;-64
2022/10/03 06:30:11;;;;;;;20.13;6.50;;;;;;;;;;6169276;28;20043;-64
2022/10/03 06:33:46;;;;;;;20.10;7.47;;;;;;;;;;6168360;28;20130;-64
2022/10/03 06:37:13;;;;;;;25.50;8.00;;;;;;;;;;6169024;28;20169;-66
2022/10/03 06:40:26;;;;;;;18.23;6.88;;;;;;;;;;6152348;28;20515;-67
2022/10/03 06:43:56;;;;;;;21.65;6.82;;;;;;;;;;6167748;28;20043;-67
2022/10/03 06:47:21;;;;;;;23.63;7.97;;;;;;;;;;6168550;28;20097;-66
2022/10/03 06:50:37;;;;;;;20.60;6.63;;;;;;;;;;6168987;28;20054;-65
2022/10/03 06:54:11;;;;;;;38.50;8.25;;;;;;;;;;6167852;28;20569;-66
2022/10/03 06:57:38;;;;;;;19.48;6.78;;;;;;;;;;6167534;28;20491;-64
2022/10/03 07:01:13;;;;;;;23.83;7.45;;;;;;;;;;6169312;28;20149;-64
2022/10/03 07:04:46;;;;;;;21.65;7.10;;;;;;;;;;6168699;28;20094;-62
2022/10/03 07:08:28;;;;;;;21.70;6.53;;;;;;;;;;6168025;28;20054;-65
2022/10/03 07:11:59;;;;;;;22.47;6.47;;;;;;;;;;6117141;29;20092;-64
2022/10/03 07:15:21;;;;;;;19.10;5.70;;;;;;;;;;6115352;28;20066;-64
2022/10/03 07:19:00;;;;;;;19.88;6.22;;;;;;;;;;6167657;28;20050;-64
2022/10/03 07:22:13;;;;;;;21.42;6.45;;;;;;;;;;6168184;28;20124;-64
2022/10/03 07:25:43;;;;;;;18.40;5.60;;;;;;;;;;6167797;28;20047;-66
2022/10/03 07:29:09;;;;;;;12.95;5.57;;;;;;;;;;6167974;28;20577;-65
2022/10/03 07:32:31;;;;;;;18.73;6.32;;;;;;;;;;6166318;28;20092;-65
2022/10/03 07:39:50;;;;;;;21.67;5.93;;;;;;;;;;6167674;28;20100;-64
2022/10/03 07:43:19;;;;;;;14.98;6.00;;;;;;;;;;6168209;28;20054;-65
2022/10/03 07:46:19;;;;;;;20.02;6.28;;;;;;;;;;6176839;28;20058;-64
2022/10/03 07:50:03;;;;;;;17.67;5.40;;;;;;;;;;6184669;28;20049;-65
2022/10/03 07:53:12;;;;;;;16.48;4.95;;;;;;;;;;6166175;28;20497;-68
2022/10/03 07:56:16;;;;;;;19.52;5.85;;;;;;;;;;6183224;28;20411;-63
2022/10/03 07:59:49;;;;;;;16.27;5.15;;;;;;;;;;6192311;28;20058;-65
2022/10/03 08:03:31;;;;;;;17.00;4.82;;;;;;;;;;6172931;28;20058;-59
2022/10/03 08:06:37;;;;;;;14.27;4.57;;;;;;;;;;6163706;28;20069;-65
2022/10/03 08:10:10;;;;;;;12.27;4.70;;;;;;;;;;6182018;28;20054;-65
2022/10/03 08:13:20;;;;;;;15.85;5.55;;;;;;;;;;6183646;28;20097;-65
2022/10/03 08:16:51;;;;;;;13.95;4.72;;;;;;;;;;6168587;28;20496;-65
2022/10/03 08:20:32;;;;;;;17.33;5.07;;;;;;;;;;6178498;28;20486;-65
2022/10/03 08:24:04;;;;;;;13.93;4.50;;;;;;;;;;6170124;28;20092;-65
2022/10/03 08:27:34;;;;;;;15.43;5.25;;;;;;;;;;6179530;28;20108;-65
2022/10/03 08:31:01;;;;;;;17.83;5.40;;;;;;;;;;6161110;28;20590;-67
2022/10/03 08:34:32;;;;;;;12.65;4.90;;;;;;;;;;6163155;28;20061;-64
2022/10/03 08:38:08;;;;;;;20.40;5.80;;;;;;;;;;6190274;28;20145;-64
2022/10/03 08:41:14;;;;;;;17.83;5.28;;;;;;;;;;6173009;28;20042;-65
2022/10/03 08:44:44;;;;;;;18.00;6.32;;;;;;;;;;6196488;28;20081;-65
2022/10/03 08:47:59;;;;;;;27.55;7.57;;;;;;;;;;6179096;28;20046;-63
2022/10/03 08:51:07;;;;;;;17.15;6.07;;;;;;;;;;6170507;28;20066;-65
2022/10/03 08:54:31;;;;;;;19.13;5.57;;;;;;;;;;6168950;28;20035;-64
2022/10/03 08:58:03;;;;;;;18.95;6.25;;;;;;;;;;6171043;28;20122;-64
2022/10/03 09:01:26;;;;;;;17.30;7.13;;;;;;;;;;6171594;28;20047;-64
2022/10/03 09:04:43;;;;;;;;;;;;;;;;;;6172131;28;20089;-63
2022/10/03 09:08:21;;;;;;;17.95;5.70;;;;;;;;;;6170431;28;20026;-63
2022/10/03 09:11:47;;;;;;;18.52;6.65;;;;;;;;;;6169922;28;20093;-66
2022/10/03 09:15:09;;;;;;;15.38;6.22;;;;;;;;;;6170977;28;20133;-64
2022/10/03 09:18:44;;;;;;;17.02;5.90;;;;;;;;;;6170931;28;20085;-61
2022/10/03 09:22:16;;;;;;;21.70;6.32;;;;;;;;;;6171620;28;20046;-71
2022/10/03 09:25:21;;;;;;;19.33;6.50;;;;;;;;;;6169134;28;20047;-66
2022/10/03 09:28:48;;;;;;;16.33;6.22;;;;;;;;;;6169761;28;20566;-66
2022/10/03 09:32:07;;;;;;;15.60;5.70;;;;;;;;;;6187741;28;20128;-70
2022/10/03 09:35:35;;;;;;;18.60;5.60;;;;;;;;;;6195471;28;20050;-62
2022/10/03 09:39:18;;;;;;;19.63;5.78;;;;;;;;;;6195118;28;20124;-61
2022/10/03 09:42:33;;;;;;;14.60;5.40;;;;;;;;;;6194242;28;20050;-62
2022/10/03 09:46:00;;;;;;;14.15;5.50;;;;;;;;;;6194483;28;20142;-61
2022/10/03 09:49:25;;;;;;;11.77;5.07;;;;;;;;;;6176833;28;20151;-61
2022/10/03 09:53:04;;;;;;;11.98;4.38;;;;;;;;;;6169585;28;20138;-57
2022/10/03 09:56:32;;;;;;;15.10;5.07;;;;;;;;;;6160094;28;20503;-60
2022/10/03 10:00:09;;;;;;;12.25;4.88;;;;;;;;;;6167929;28;20066;-59
2022/10/03 10:03:44;;;;;;;12.77;5.63;;;;;;;;;;6166193;28;20181;-60
2022/10/03 10:07:22;;;;;;;15.48;5.18;;;;;;;;;;6170076;28;20085;-61
2022/10/03 10:10:36;;;;;;;14.10;5.10;;;;;;;;;;6170125;28;20093;-60
2022/10/03 10:14:15;;;;;;;19.25;5.68;;;;;;;;;;6173025;28;20132;-61
2022/10/03 10:17:52;;;;;;;13.43;5.35;;;;;;;;;;6168711;28;20410;-62
2022/10/03 10:21:24;;;;;;;14.73;5.45;;;;;;;;;;6185393;28;20402;-64
2022/10/03 10:24:28;;;;;;;11.52;4.97;;;;;;;;;;6168842;28;20062;-61
2022/10/03 10:27:50;;;;;;;11.63;4.93;;;;;;;;;;6174677;28;20137;-61
2022/10/03 10:31:28;;;;;;;11.50;5.00;;;;;;;;;;6194144;28;20433;-61
2022/10/03 10:35:11;;;;;;;14.48;5.10;;;;;;;;;;6193424;28;20057;-67
2022/10/03 10:38:45;;;;;;;13.32;5.30;;;;;;;;;;6192686;28;20583;-61
2022/10/03 10:42:20;;;;;;;13.25;5.00;;;;;;;;;;6171137;28;20129;-60
2022/10/03 10:46:04;;;;;;;13.05;4.82;;;;;;;;;;6169641;28;20054;-61
2022/10/03 10:49:34;;;;;;;13.10;4.82;;;;;;;;;;6168858;28;20067;-61
2022/10/03 10:53:03;;;;;;;20.50;7.38;;;;;;;;;;6166448;28;20149;-60
2022/10/03 10:56:26;;;;;;;14.45;5.45;;;;;;;;;;6168498;28;20145;-61
2022/10/03 11:00:00;;;;;;;12.00;4.82;;;;;;;;;;6168508;28;20046;-60
2022/10/03 11:03:41;;;;;;;16.00;6.45;;;;;;;;;;6168669;28;20495;-60
2022/10/03 11:06:56;;;;;;;12.98;5.18;;;;;;;;;;6159008;28;20384;-58
2022/10/03 11:09:59;;;;;;;10.65;4.65;;;;;;;;;;6155841;28;20081;-60
2022/10/03 11:13:09;;;;;;;10.50;5.15;;;;;;;;;;6160368;28;20077;-59
2022/10/03 11:16:54;;;;;;;14.77;5.07;;;;;;;;;;6158268;28;20625;-57
2022/10/03 11:20:45;;;;;;;13.73;5.63;;;;;;;;;;6164802;28;20051;-58
2022/10/03 11:23:58;;;;;;;10.27;4.55;;;;;;;;;;6160994;28;20169;-58
2022/10/03 11:27:37;;;;;;;16.50;5.05;;;;;;;;;;6160071;28;20499;-57
2022/10/03 11:30:50;;;;;;;11.43;4.10;;;;;;;;;;6140402;29;20101;-59
2022/10/03 11:34:08;;;;;;;13.80;4.43;;;;;;;;;;6158475;28;20039;-60
2022/10/03 11:37:39;;;;;;;12.32;4.70;;;;;;;;;;6158680;28;20053;-58
2022/10/03 11:40:57;;;;;;;10.52;4.43;;;;;;;;;;6158888;28;20106;-56
2022/10/03 11:44:06;;;;;;;16.80;5.15;;;;;;;;;;6164936;28;20554;-58
2022/10/03 11:47:38;;;;;;;14.52;5.00;;;;;;;;;;6165876;28;20038;-58
2022/10/03 11:51:06;;;;;;;13.65;6.00;;;;;;;;;;6167101;28;20049;-59
2022/10/03 11:54:26;;;;;;;18.95;5.47;;;;;;;;;;6168798;28;20051;-60
2022/10/03 11:57:33;;;;;;;19.42;5.72;;;;;;;;;;6153720;28;20181;-60
2022/10/03 12:00:37;;;;;;;16.42;5.38;;;;;;;;;;6160190;28;20507;-59
2022/10/03 12:03:54;;;;;;;13.27;4.88;;;;;;;;;;6163872;28;20051;-56
2022/10/03 12:10:59;;;;;;;9.98;5.22;;;;;;;;;;6160092;28;20047;-54
2022/10/03 12:14:11;;;;;;;13.75;5.45;;;;;;;;;;6162879;28;20504;-57
2022/10/03 12:17:19;;;;;;;13.85;4.95;;;;;;;;;;6160373;28;20045;-56
2022/10/03 12:20:30;;;;;;;14.18;5.05;;;;;;;;;;6159742;28;20125;-58
2022/10/03 12:24:21;;;;;;;14.20;5.85;;;;;;;;;;6158830;28;20421;-57
2022/10/03 12:27:41;;;;;;;12.77;4.82;;;;;;;;;;6147783;28;20046;-56
2022/10/03 12:30:54;;;;;;;14.45;5.40;;;;;;;;;;6159566;28;20137;-60
2022/10/03 12:34:20;;;;;;;14.57;5.57;;;;;;;;;;6159594;28;20057;-56
2022/10/03 12:37:36;;;;;;;13.63;6.07;;;;;;;;;;6160060;28;20050;-56
2022/10/03 12:40:42;;;;;;;12.70;5.57;;;;;;;;;;6160215;28;20050;-56
2022/10/03 12:44:07;;;;;;;12.02;4.95;;;;;;;;;;6158863;28;20055;-57
2022/10/03 12:47:50;;;;;;;16.20;5.78;;;;;;;;;;6145022;28;20096;-56
2022/10/03 12:51:13;;;;;;;16.17;5.90;;;;;;;;;;6145703;28;20134;-57
2022/10/03 12:54:29;;;;;;;19.97;6.50;;;;;;;;;;6147616;28;21105;-57
2022/10/03 12:57:51;;;;;;;12.02;5.97;;;;;;;;;;6145599;28;20051;-57
2022/10/03 13:01:18;;;;;;;17.92;5.25;;;;;;;;;;6143241;28;20653;-57
2022/10/03 13:04:33;;;;;;;18.88;5.80;;;;;;;;;;6149409;28;20087;-55
2022/10/03 13:07:56;;;;;;;18.63;6.65;;;;;;;;;;6150851;28;20051;-55
2022/10/03 13:11:16;;;;;;;14.57;5.80;;;;;;;;;;6149097;28;20054;-56
2022/10/03 13:14:44;;;;;;;18.60;6.93;;;;;;;;;;6148649;28;20497;-59
2022/10/03 13:17:54;;;;;;;20.83;6.00;;;;;;;;;;6147209;28;20115;-57
2022/10/03 13:21:18;;;;;;;17.42;6.22;;;;;;;;;;6150534;28;20145;-56
2022/10/03 13:24:19;;;;;;;15.13;5.65;;;;;;;;;;6148928;28;20153;-59
2022/10/03 13:27:31;;;;;;;14.98;5.88;;;;;;;;;;6139242;28;20046;-58
2022/10/03 13:30:52;;;;;;;16.27;5.38;;;;;;;;;;6146625;28;20547;-55
2022/10/03 13:33:58;;;;;;;14.43;6.28;;;;;;;;;;6128908;28;20047;-58
2022/10/03 13:37:08;;;;;;;16.00;5.97;;;;;;;;;;6132118;28;20054;-58
2022/10/03 13:40:17;;;;;;;15.00;5.53;;;;;;;;;;6134328;28;20051;-57
2022/10/03 13:43:25;;;;;;;13.88;5.80;;;;;;;;;;6131141;28;20802;-58
2022/10/03 13:46:36;;;;;;;19.00;6.93;;;;;;;;;;6153208;28;20594;-60
2022/10/03 13:49:50;;;;;;;22.65;7.25;;;;;;;;;;6152916;28;20051;-59
2022/10/03 13:53:10;;;;;;;18.70;7.82;;;;;;;;;;6149562;28;20113;-59
2022/10/03 13:56:29;;;;;;;17.27;5.93;;;;;;;;;;6152354;28;20109;-58
2022/10/03 13:59:58;;;;;;;16.88;6.20;;;;;;;;;;6151954;28;20137;-60
2022/10/03 14:03:16;;;;;;;14.13;5.00;;;;;;;;;;6144991;28;20507;-59
2022/10/03 14:06:33;;;;;;;14.52;5.47;;;;;;;;;;6157462;28;20051;-60
2022/10/03 14:09:51;;;;;;;12.13;4.53;;;;;;;;;;6159462;28;20165;-57
2022/10/03 14:13:16;;;;;;;18.80;7.00;;;;;;;;;;6157977;28;20561;-57
2022/10/03 14:16:30;;;;;;;12.57;4.75;;;;;;;;;;6148424;28;20066;-59
2022/10/03 14:19:38;;;;;;;14.32;5.35;;;;;;;;;;6159369;28;20066;-59
2022/10/03 14:22:58;;;;;;;17.00;5.72;;;;;;;;;;6156236;28;20567;-57
2022/10/03 14:26:08;;;;;;;15.65;6.60;;;;;;;;;;6159201;28;20121;-59
2022/10/03 14:29:43;;;;;;;19.10;6.90;;;;;;;;;;6153745;28;20050;-59
2022/10/03 14:32:44;;;;;;;18.88;7.22;;;;;;;;;;6154678;28;20117;-58
2022/10/03 14:36:09;;;;;;;19.43;8.90;;;;;;;;;;6158225;28;20138;-56
2022/10/03 14:39:13;;;;;;;24.45;8.65;;;;;;;;;;6159703;28;20054;-60
2022/10/03 14:42:30;;;;;;;20.55;8.00;;;;;;;;;;6156577;28;20121;-59
2022/10/03 14:45:38;;;;;;;22.30;8.52;;;;;;;;;;6155828;28;21558;-57
2022/10/03 14:48:43;;;;;;;18.35;7.22;;;;;;;;;;6156507;28;20662;-56
2022/10/03 14:51:53;;;;;;;21.40;8.40;;;;;;;;;;6155556;28;20126;-59
2022/10/03 14:54:56;;;;;;;20.00;8.65;;;;;;;;;;6159466;28;20047;-56
2022/10/03 14:58:07;;;;;;;25.17;9.52;;;;;;;;;;6157931;28;20442;-60
2022/10/03 15:01:11;;;;;;;22.90;9.20;;;;;;;;;;6156639;28;20936;-56
2022/10/03 15:04:20;;;;;;;22.92;8.73;;;;;;;;;;6159356;28;20555;-59
2022/10/03 15:07:37;;;;;;;22.08;8.77;;;;;;;;;;6154840;28;20210;-59
2022/10/03 15:10:38;;;;;;;22.95;9.25;;;;;;;;;;6149654;28;20117;-60
2022/10/03 15:14:05;;;;;;;19.23;7.73;;;;;;;;;;6149207;28;20764;-56
2022/10/03 15:17:26;;;;;;;19.77;7.68;;;;;;;;;;6151117;28;20683;-57
2022/10/03 15:20:35;;;;;;;22.45;7.05;;;;;;;;;;6150903;28;20142;-55
2022/10/03 15:23:41;;;;;;;18.88;6.63;;;;;;;;;;6148000;28;20061;-59
2022/10/03 15:26:46;;;;;;;16.83;6.53;;;;;;;;;;6150077;28;20060;-58
2022/10/03 15:29:53;;;;;;;22.23;7.75;;;;;;;;;;6151045;28;20089;-60
2022/10/03 15:33:03;;;;;;;19.02;6.63;;;;;;;;;;6149213;28;20182;-58
2022/10/03 15:36:04;;;;;;;15.45;6.18;;;;;;;;;;6149410;28;20035;-57
2022/10/03 15:39:15;;;;;;;18.85;6.63;;;;;;;;;;6150154;28;20097;-59
2022/10/03 15:42:29;;;;;;;15.73;6.07;;;;;;;;;;6147840;28;21275;-57
2022/10/03 15:45:31;;;;;;;17.42;7.05;;;;;;;;;;6149940;28;20055;-57
2022/10/03 15:48:32;;;;;;;17.33;6.00;;;;;;;;;;6156556;28;20742;-58
2022/10/03 15:51:37;;;;;;;16.60;6.63;;;;;;;;;;6155340;28;20094;-56
2022/10/03 15:54:38;;;;;;;15.73;6.22;;;;;;;;;;6157725;28;20399;-57
2022/10/03 15:57:44;;;;;;;15.63;6.40;;;;;;;;;;6152655;28;20051;-57
2022/10/03 16:00:55;;;;;;;20.13;6.13;;;;;;;;;;6149244;28;20073;-60
2022/10/03 16:04:02;;;;;;;16.30;6.13;;;;;;;;;;6150401;28;20589;-58
2022/10/03 16:07:10;;;;;;;23.58;6.47;;;;;;;;;;6148083;28;20047;-59
2022/10/03 16:10:26;;;;;;;12.93;5.45;;;;;;;;;;6151495;28;20824;-54
2022/10/03 16:13:58;;;;;;;17.98;5.70;;;;;;;;;;6147812;28;20051;-61
2022/10/03 16:17:04;;;;;;;18.85;6.55;;;;;;;;;;6149941;28;21011;-58
2022/10/03 16:20:19;;;;;;;15.10;5.53;;;;;;;;;;6148572;28;20050;-57
2022/10/03 16:23:22;;;;;;;20.23;7.15;;;;;;;;;;6148647;28;20149;-58
2022/10/03 16:26:28;;;;;;;15.68;6.35;;;;;;;;;;6150438;28;20853;-57
2022/10/03 16:29:33;;;;;;;18.88;6.68;;;;;;;;;;6153768;28;20287;-52
2022/10/03 16:32:56;;;;;;;17.52;6.72;;;;;;;;;;6148613;28;20043;-59
2022/10/03 16:35:58;;;;;;;;;;;;;;;;;;6154254;28;20054;-60
2022/10/03 16:39:01;;;;;;;20.02;7.43;;;;;;;;;;6156934;28;19926;-58
2022/10/03 16:42:17;;;;;;;23.10;7.57;;;;;;;;;;6155013;28;20061;-55
2022/10/03 16:45:32;;;;;;;17.40;7.03;;;;;;;;;;6160237;28;20715;-53
2022/10/03 16:52:02;;;;;;;23.00;8.20;;;;;;;;;;6158691;28;20418;-56
2022/10/03 16:55:26;;;;;;;19.33;7.63;;;;;;;;;;6160620;28;20051;-58
2022/10/03 16:58:32;;;;;;;17.08;7.03;;;;;;;;;;6149128;28;20054;-59
2022/10/03 17:01:55;;;;;;;18.70;6.47;;;;;;;;;;6158795;28;20109;-61
2022/10/03 17:05:01;;;;;;;;;;;;;;;;;;6162661;28;20069;-57
2022/10/03 17:08:03;;;;;;;19.27;6.93;;;;;;;;;;6159835;28;20000;-61
2022/10/03 17:11:07;;;;;;;16.25;7.00;;;;;;;;;;6159540;28;21099;-57
2022/10/03 17:14:08;;;;;;;18.70;6.65;;;;;;;;;;6160719;28;20053;-57
2022/10/03 17:17:20;;;;;;;16.20;6.70;;;;;;;;;;6160637;28;20514;-58
2022/10/03 17:20:37;;;;;;;19.90;7.13;;;;;;;;;;6158332;28;20703;-60
2022/10/03 17:23:43;;;;;;;19.00;7.82;;;;;;;;;;6159242;28;20055;-59
2022/10/03 17:26:45;;;;;;;19.13;7.03;;;;;;;;;;6159084;28;20169;-60
2022/10/03 17:29:55;;;;;;;22.55;7.97;;;;;;;;;;6160013;28;20488;-58
2022/10/03 17:33:04;;;;;;;26.52;8.32;;;;;;;;;;6157359;28;20053;-59
2022/10/03 17:36:26;;;;;;;19.42;8.43;;;;;;;;;;6160530;28;20050;-59
2022/10/03 17:39:33;;;;;;;21.25;8.00;;;;;;;;;;6159302;28;20182;-58
2022/10/03 17:42:40;;;;;;;22.02;8.32;;;;;;;;;;6157544;28;20057;-61
2022/10/03 17:45:49;;;;;;;25.73;9.50;;;;;;;;;;6160940;28;20159;-59
2022/10/03 17:49:00;;;;;;;23.23;9.70;;;;;;;;;;6160971;28;20152;-60
2022/10/03 17:52:01;;;;;;;24.60;10.93;;;;;;;;;;6157284;28;20142;-59
2022/10/03 17:55:03;;;;;;;28.13;10.23;;;;;;;;;;6159089;28;20062;-61
2022/10/03 17:58:11;;;;;;;25.02;9.65;;;;;;;;;;6160612;28;20043;-58
2022/10/03 18:01:15;;;;;;;34.42;11.25;;;;;;;;;;6156946;28;20046;-57
2022/10/03 18:04:29;;;;;;;23.92;9.48;;;;;;;;;;6158520;28;20880;-60
2022/10/03 18:07:32;;;;;;;25.73;9.65;;;;;;;;;;6153804;28;20043;-60
2022/10/03 18:10:38;;;;;;;28.92;10.98;;;;;;;;;;6155567;28;20064;-59
2022/10/03 18:13:44;;;;;;;28.50;10.18;;;;;;;;;;6148902;28;20502;-60
2022/10/03 18:16:55;;;;;;;25.02;8.88;;;;;;;;;;6151435;28;20047;-59
2022/10/03 18:20:25;;;;;;;24.92;9.25;;;;;;;;;;6160039;28;20062;-59
2022/10/03 18:24:05;;;;;;;25.08;9.32;;;;;;;;;;6157114;28;20577;-59
2022/10/03 18:27:37;;;;;;;22.65;8.27;;;;;;;;;;6156651;28;20042;-60
2022/10/03 18:30:44;;;;;;;21.95;7.80;;;;;;;;;;6157727;28;20065;-60
2022/10/03 18:33:58;;;;;;;26.63;9.10;;;;;;;;;;6155795;28;21390;-61
2022/10/03 18:37:15;;;;;;;24.83;8.70;;;;;;;;;;6156764;28;20102;-60
2022/10/03 18:40:22;;;;;;;27.35;9.38;;;;;;;;;;6156891;28;20473;-60
2022/10/03 18:43:30;;;;;;;30.50;9.95;;;;;;;;;;6155885;28;20045;-58
2022/10/03 18:46:41;;;;;;;22.40;8.52;;;;;;;;;;6158386;28;20149;-59
2022/10/03 18:49:51;;;;;;;25.27;9.00;;;;;;;;;;6158851;28;20138;-56
2022/10/03 18:52:56;;;;;;;21.65;8.63;;;;;;;;;;6152584;28;20451;-57
2022/10/03 18:56:02;;;;;;;26.27;8.75;;;;;;;;;;6155412;28;20498;-62
2022/10/03 18:59:13;;;;;;;31.13;9.90;;;;;;;;;;6157831;28;20057;-61
2022/10/03 19:02:27;;;;;;;20.92;7.93;;;;;;;;;;6147564;28;20053;-61
2022/10/03 19:05:36;;;;;;;29.70;9.50;;;;;;;;;;6154991;28;20074;-60
2022/10/03 19:08:51;;;;;;;25.27;9.00;;;;;;;;;;6150910;28;20053;-61
2022/10/03 19:12:09;;;;;;;22.50;8.07;;;;;;;;;;6152055;28;20049;-60
2022/10/03 19:15:21;;;;;;;22.13;7.97;;;;;;;;;;6155260;28;20170;-61
2022/10/03 19:18:32;;;;;;;27.73;8.23;;;;;;;;;;6153582;28;20058;-60
2022/10/03 19:21:37;;;;;;;20.50;7.43;;;;;;;;;;6147072;28;20050;-61
2022/10/03 19:24:39;;;;;;;23.88;8.48;;;;;;;;;;6151053;28;20059;-59
2022/10/03 19:27:56;;;;;;;24.00;8.32;;;;;;;;;;6145624;28;20059;-61
2022/10/03 19:31:05;;;;;;;18.38;7.65;;;;;;;;;;6130841;28;20058;-59
2022/10/03 19:34:14;;;;;;;27.58;8.93;;;;;;;;;;6150311;28;20042;-58
2022/10/03 19:37:29;;;;;;;20.38;7.97;;;;;;;;;;6150544;28;20062;-59
2022/10/03 19:41:03;;;;;;;18.88;7.50;;;;;;;;;;6150922;28;20093;-57
2022/10/03 19:44:16;;;;;;;11.15;4.50;;;;;;;;;;6148951;28;20478;-61
2022/10/03 19:47:21;;;;;;;12.25;4.30;;;;;;;;;;6151002;28;20094;-60